createdAt,value
2022-08-03T00:02:17.879Z,2.37
2022-08-03T00:04:46.222Z,2.60
2022-08-03T00:07:13.880Z,2.40
2022-08-03T00:09:43.203Z,2.60
2022-08-03T00:12:11.015Z,2.40
2022-08-03T00:14:38.670Z,2.03
2022-08-03T00:17:06.338Z,2.17
2022-08-03T00:19:34.006Z,2.20
2022-08-03T00:22:01.653Z,1.77
2022-08-03T00:24:31.123Z,2.27
2022-08-03T00:27:00.167Z,2.10
2022-08-03T00:29:28.117Z,2.50
2022-08-03T00:31:59.415Z,2.43
2022-08-03T00:34:36.702Z,2.67
2022-08-03T00:37:16.309Z,2.17
2022-08-03T00:39:45.913Z,2.20
2022-08-03T00:42:15.347Z,1.90
2022-08-03T00:44:44.132Z,1.77
2022-08-03T00:47:12.906Z,2.20
2022-08-03T00:49:41.883Z,2.10
2022-08-03T00:52:10.419Z,2.03
2022-08-03T00:54:38.729Z,2.03
2022-08-03T00:57:06.878Z,2.17
2022-08-03T00:59:38.121Z,1.90
2022-08-03T01:02:05.835Z,2.47
2022-08-03T01:04:33.779Z,2.23
2022-08-03T01:07:10.845Z,2.13
2022-08-03T01:09:42.809Z,2.10
2022-08-03T01:12:16.201Z,2.10
2022-08-03T01:14:47.869Z,2.40
2022-08-03T01:17:19.500Z,2.17
2022-08-03T01:19:51.449Z,2.27
2022-08-03T01:22:50.166Z,2.20
2022-08-03T01:25:30.127Z,2.27
2022-08-03T01:28:04.638Z,1.93
2022-08-03T01:30:34.985Z,2.50
2022-08-03T01:33:06.561Z,2.23
2022-08-03T01:35:38.546Z,2.10
2022-08-03T01:38:08.728Z,2.10
2022-08-03T01:40:37.831Z,2.63
2022-08-03T01:43:06.442Z,1.90
2022-08-03T01:45:35.786Z,2.00
2022-08-03T01:48:04.356Z,2.00
2022-08-03T01:50:34.314Z,2.30
2022-08-03T01:53:03.505Z,2.20
2022-08-03T01:55:33.269Z,1.87
2022-08-03T01:58:05.535Z,2.07
2022-08-03T02:00:37.325Z,2.33
2022-08-03T02:03:07.282Z,2.10
2022-08-03T02:05:35.437Z,2.50
2022-08-03T02:08:05.403Z,2.07
2022-08-03T02:10:35.631Z,2.27
2022-08-03T02:13:05.638Z,1.90
2022-08-03T02:15:35.693Z,2.07
2022-08-03T02:18:04.459Z,2.20
2022-08-03T02:20:36.287Z,2.07
2022-08-03T02:23:04.012Z,2.13
2022-08-03T02:25:31.848Z,2.50
2022-08-03T02:28:08.347Z,2.47
2022-08-03T02:30:39.202Z,2.73
2022-08-03T02:33:09.973Z,2.40
2022-08-03T02:35:38.226Z,2.30
2022-08-03T02:38:09.212Z,2.90
2022-08-03T02:40:37.642Z,2.33
2022-08-03T02:43:09.676Z,2.30
2022-08-03T02:45:45.534Z,2.00
2022-08-03T02:48:13.948Z,2.73
2022-08-03T02:50:42.952Z,2.47
2022-08-03T02:53:11.379Z,2.30
2022-08-03T02:55:45.662Z,1.93
2022-08-03T02:58:14.727Z,2.50
2022-08-03T03:00:45.382Z,2.30
2022-08-03T03:03:13.742Z,2.60
2022-08-03T03:05:55.137Z,2.40
2022-08-03T03:08:28.630Z,2.70
2022-08-03T03:10:58.283Z,2.83
2022-08-03T03:13:26.505Z,3.10
2022-08-03T03:15:55.922Z,2.37
2022-08-03T03:18:25.254Z,2.37
2022-08-03T03:20:53.827Z,2.50
2022-08-03T03:23:22.979Z,2.77
2022-08-03T03:25:51.048Z,3.17
2022-08-03T03:28:19.212Z,2.57
2022-08-03T03:30:52.582Z,2.57
2022-08-03T03:33:22.467Z,2.57
2022-08-03T03:35:51.604Z,3.27
2022-08-03T03:38:19.888Z,2.53
2022-08-03T03:40:47.559Z,2.67
2022-08-03T03:43:15.661Z,2.30
2022-08-03T03:45:43.512Z,3.00
2022-08-03T03:48:11.736Z,2.60
2022-08-03T03:50:41.332Z,2.47
2022-08-03T03:53:11.234Z,2.57
2022-08-03T03:56:01.550Z,2.70
2022-08-03T03:58:27.097Z,7.30
2022-08-03T04:00:54.854Z,4.53
2022-08-03T04:03:22.623Z,4.60
2022-08-03T04:06:08.949Z,3.03
2022-08-03T04:08:54.262Z,2.73
2022-08-03T04:11:30.442Z,2.90
2022-08-03T04:14:05.739Z,2.93
2022-08-03T04:16:35.210Z,2.17
2022-08-03T04:19:05.348Z,2.60
2022-08-03T04:21:35.137Z,2.40
2022-08-03T04:24:05.112Z,3.00
2022-08-03T04:26:36.174Z,3.70
2022-08-03T04:29:04.820Z,3.53
2022-08-03T04:31:32.774Z,4.30
2022-08-03T04:34:00.664Z,9.30
2022-08-03T04:36:32.509Z,3.50
2022-08-03T04:39:06.487Z,2.90
2022-08-03T04:42:02.202Z,3.50
2022-08-03T04:44:28.525Z,2.90
2022-08-03T04:46:57.565Z,4.00
2022-08-03T04:49:25.377Z,3.27
2022-08-03T04:51:53.680Z,2.87
2022-08-03T04:54:22.936Z,3.27
2022-08-03T04:56:50.594Z,2.50
2022-08-03T04:59:18.863Z,3.83
2022-08-03T05:01:46.557Z,3.37
2022-08-03T05:04:14.946Z,3.53
2022-08-03T05:06:48.112Z,4.00
2022-08-03T05:09:39.557Z,3.20
2022-08-03T05:12:10.861Z,3.13
2022-08-03T05:14:39.523Z,2.50
2022-08-03T05:17:07.515Z,2.80
2022-08-03T05:19:35.261Z,2.97
2022-08-03T05:22:03.273Z,2.50
2022-08-03T05:24:32.483Z,2.23
2022-08-03T05:27:00.213Z,2.77
2022-08-03T05:29:27.883Z,2.67
2022-08-03T05:31:55.616Z,3.00
2022-08-03T05:34:23.369Z,2.90
2022-08-03T05:36:51.145Z,3.10
2022-08-03T05:39:19.071Z,2.90
2022-08-03T05:41:48.095Z,2.80
2022-08-03T05:44:15.899Z,2.93
2022-08-03T05:46:43.665Z,2.70
2022-08-03T05:49:11.595Z,2.80
2022-08-03T05:51:39.304Z,3.60
2022-08-03T05:54:07.100Z,2.90
2022-08-03T05:56:34.968Z,2.33
2022-08-03T05:59:22.714Z,2.70
2022-08-03T06:01:52.812Z,2.67
2022-08-03T06:04:20.616Z,2.30
2022-08-03T06:06:50.613Z,3.00
2022-08-03T06:09:18.596Z,2.47
2022-08-03T06:11:46.340Z,2.37
2022-08-03T06:14:15.671Z,2.77
2022-08-03T06:16:43.307Z,2.50
2022-08-03T06:19:11.059Z,2.37
2022-08-03T06:21:38.687Z,2.67
2022-08-03T06:24:08.226Z,1.80
2022-08-03T06:26:35.902Z,3.20
2022-08-03T06:29:04.036Z,2.73
2022-08-03T06:31:33.837Z,2.57
2022-08-03T06:34:33.510Z,2.60
2022-08-03T06:36:52.293Z,2.30
2022-08-03T06:39:20.681Z,2.20
2022-08-03T06:41:51.565Z,2.43
2022-08-03T06:44:19.314Z,2.27
2022-08-03T06:46:48.291Z,1.80
2022-08-03T06:49:16.133Z,2.37
2022-08-03T06:52:05.951Z,2.40
2022-08-03T06:54:33.189Z,2.07
2022-08-03T06:57:01.134Z,2.00
2022-08-03T07:00:08.953Z,1.67
2022-08-03T07:02:20.341Z,1.93
2022-08-03T07:04:48.643Z,1.93
2022-08-03T07:07:17.600Z,1.90
2022-08-03T07:09:57.629Z,1.87
2022-08-03T07:12:27.733Z,1.90
2022-08-03T07:15:00.404Z,2.00
2022-08-03T07:17:30.987Z,1.57
2022-08-03T07:19:58.968Z,1.90
2022-08-03T07:22:26.670Z,1.80
2022-08-03T07:24:54.335Z,1.63
2022-08-03T07:27:22.524Z,1.13
2022-08-03T07:29:50.185Z,1.10
2022-08-03T07:32:18.245Z,1.50
2022-08-03T07:34:47.417Z,1.60
2022-08-03T07:37:15.116Z,1.63
2022-08-03T07:39:42.771Z,1.43
2022-08-03T07:42:10.504Z,1.03
2022-08-03T07:44:39.323Z,1.47
2022-08-03T07:47:07.100Z,1.20
2022-08-03T07:49:40.772Z,1.37
2022-08-03T07:52:28.295Z,1.20
2022-08-03T07:54:56.325Z,1.57
2022-08-03T07:57:23.975Z,1.70
2022-08-03T08:00:01.873Z,1.40
2022-08-03T08:02:30.426Z,1.40
2022-08-03T08:05:01.075Z,1.30
2022-08-03T08:07:34.161Z,1.03
2022-08-03T08:10:01.816Z,1.23
2022-08-03T08:12:29.733Z,1.38
2022-08-03T08:14:57.435Z,1.00
2022-08-03T08:17:25.131Z,1.40
2022-08-03T08:19:53.575Z,1.40
2022-08-03T08:22:24.779Z,1.27
2022-08-03T08:25:01.051Z,1.33
2022-08-03T08:28:29.587Z,1.23
2022-08-03T08:30:19.574Z,1.15
2022-08-03T08:32:47.645Z,1.50
2022-08-03T08:35:15.679Z,1.33
2022-08-03T08:37:44.143Z,1.30
2022-08-03T08:40:22.098Z,1.08
2022-08-03T08:42:58.813Z,1.20
2022-08-03T08:45:27.472Z,1.35
2022-08-03T08:48:00.830Z,1.13
2022-08-03T08:50:30.513Z,1.50
2022-08-03T08:53:02.215Z,1.13
2022-08-03T08:55:58.715Z,1.17
2022-08-03T08:58:21.157Z,1.50
2022-08-03T09:00:49.370Z,1.10
2022-08-03T09:03:29.058Z,0.82
2022-08-03T09:06:00.322Z,1.10
2022-08-03T09:08:27.977Z,1.10
2022-08-03T09:10:56.956Z,0.82
2022-08-03T09:13:24.746Z,1.10
2022-08-03T09:16:10.713Z,1.17
2022-08-03T09:18:38.344Z,1.00
2022-08-03T09:21:36.024Z,1.10
2022-08-03T09:24:08.618Z,1.00
2022-08-03T09:26:52.233Z,1.00
2022-08-03T09:29:22.224Z,1.27
2022-08-03T09:31:49.874Z,1.02
2022-08-03T09:34:18.575Z,1.38
2022-08-03T09:36:47.785Z,1.30
2022-08-03T09:39:17.334Z,1.30
2022-08-03T09:41:47.207Z,1.50
2022-08-03T09:44:24.839Z,1.42
2022-08-03T09:46:55.550Z,1.30
2022-08-03T09:49:23.670Z,0.98
2022-08-03T09:52:30.076Z,0.95
2022-08-03T09:54:39.505Z,1.13
2022-08-03T09:57:08.621Z,0.90
2022-08-03T09:59:39.191Z,0.73
2022-08-03T10:02:21.805Z,0.70
2022-08-03T10:04:52.743Z,0.75
2022-08-03T10:07:21.851Z,1.00
2022-08-03T10:09:56.982Z,0.65
2022-08-03T10:12:26.552Z,0.88
2022-08-03T10:14:55.480Z,0.80
2022-08-03T10:17:24.297Z,0.70
2022-08-03T10:19:51.908Z,0.85
2022-08-03T10:22:23.131Z,1.10
2022-08-03T10:24:54.855Z,0.68
2022-08-03T10:27:24.061Z,1.30
2022-08-03T10:29:55.431Z,1.08
2022-08-03T10:32:27.665Z,1.50
2022-08-03T10:35:00.271Z,1.40
2022-08-03T10:37:33.964Z,1.58
2022-08-03T10:40:01.909Z,1.73
2022-08-03T10:42:31.691Z,1.13
2022-08-03T10:45:06.565Z,1.15
2022-08-03T10:47:35.873Z,1.27
2022-08-03T10:50:04.642Z,0.90
2022-08-03T10:52:38.233Z,0.82
2022-08-03T10:55:48.355Z,0.68
2022-08-03T10:58:30.486Z,1.02
2022-08-03T11:01:00.225Z,0.88
2022-08-03T11:03:27.963Z,0.82
2022-08-03T11:06:16.925Z,0.82
2022-08-03T11:08:44.578Z,0.90
2022-08-03T11:11:28.417Z,0.93
2022-08-03T11:14:00.758Z,0.77
2022-08-03T11:16:30.490Z,0.63
2022-08-03T11:19:00.393Z,1.15
2022-08-03T11:22:01.338Z,0.80
2022-08-03T11:25:53.447Z,0.73
2022-08-03T11:28:25.906Z,0.85
2022-08-03T11:30:54.592Z,0.88
2022-08-03T11:33:33.961Z,0.75
2022-08-03T11:36:03.052Z,0.60
2022-08-03T11:38:30.998Z,0.85
2022-08-03T11:40:58.663Z,0.82
2022-08-03T11:43:45.449Z,0.63
2022-08-03T11:46:29.759Z,0.57
2022-08-03T11:49:09.863Z,0.80
2022-08-03T11:51:39.856Z,0.47
2022-08-03T11:54:08.470Z,0.80
2022-08-03T11:56:45.728Z,0.65
2022-08-03T11:59:20.768Z,0.57
2022-08-03T12:01:49.182Z,0.70
2022-08-03T12:04:18.280Z,0.70
2022-08-03T12:07:00.290Z,0.50
2022-08-03T12:09:27.947Z,0.60
2022-08-03T12:11:59.719Z,0.90
2022-08-03T12:14:48.981Z,0.80
2022-08-03T12:17:17.371Z,0.90
2022-08-03T12:19:46.690Z,0.95
2022-08-03T12:22:16.003Z,0.93
2022-08-03T12:24:44.221Z,0.90
2022-08-03T12:27:14.247Z,1.00
2022-08-03T12:29:41.908Z,1.33
2022-08-03T12:32:09.637Z,1.15
2022-08-03T12:34:48.190Z,0.88
2022-08-03T12:37:22.685Z,0.70
2022-08-03T12:40:02.763Z,0.90
2022-08-03T12:42:35.700Z,0.80
2022-08-03T12:45:22.245Z,0.63
2022-08-03T12:47:54.495Z,0.68
2022-08-03T12:50:32.156Z,1.20
2022-08-03T12:53:01.246Z,0.60
2022-08-03T12:55:56.508Z,0.70
2022-08-03T12:58:33.507Z,0.70
2022-08-03T13:01:01.580Z,1.20
2022-08-03T13:03:42.805Z,1.23
2022-08-03T13:06:15.908Z,0.90
2022-08-03T13:08:45.608Z,0.70
2022-08-03T13:11:20.773Z,0.50
2022-08-03T13:13:48.478Z,1.00
2022-08-03T13:16:19.282Z,0.98
2022-08-03T13:18:48.037Z,0.80
2022-08-03T13:21:17.842Z,0.80
2022-08-03T13:23:46.203Z,0.90
2022-08-03T13:26:14.146Z,1.00
2022-08-03T13:28:41.863Z,1.00
2022-08-03T13:31:09.570Z,0.80
2022-08-03T13:33:37.331Z,0.80
2022-08-03T13:36:05.201Z,0.63
2022-08-03T13:38:34.270Z,0.80
2022-08-03T13:41:04.977Z,0.73
2022-08-03T13:43:32.976Z,0.90
2022-08-03T13:46:00.689Z,0.90
2022-08-03T13:48:36.721Z,0.80
2022-08-03T13:51:11.719Z,0.88
2022-08-03T13:53:52.287Z,0.70
2022-08-03T13:56:20.079Z,1.30
2022-08-03T13:58:47.731Z,0.80
2022-08-03T14:01:15.558Z,0.70
2022-08-03T14:03:43.305Z,0.90
2022-08-03T14:06:11.131Z,1.05
2022-08-03T14:08:38.804Z,1.08
2022-08-03T14:11:07.921Z,0.90
2022-08-03T14:13:35.696Z,0.60
2022-08-03T14:16:03.413Z,0.55
2022-08-03T14:18:33.716Z,0.68
2022-08-03T14:21:06.364Z,0.60
2022-08-03T14:23:37.935Z,0.90
2022-08-03T14:26:10.818Z,1.15
2022-08-03T14:28:39.665Z,1.38
2022-08-03T14:32:09.218Z,0.80
2022-08-03T14:33:57.456Z,0.63
2022-08-03T14:36:26.015Z,0.70
2022-08-03T14:38:56.115Z,0.57
2022-08-03T14:41:27.558Z,0.77
2022-08-03T14:44:02.000Z,0.47
2022-08-03T14:46:30.528Z,0.50
2022-08-03T14:50:33.784Z,0.57
2022-08-03T14:51:53.872Z,0.65
2022-08-03T14:54:22.193Z,0.68
2022-08-03T14:56:51.545Z,0.80
2022-08-03T14:59:19.488Z,0.60
2022-08-03T15:02:02.560Z,0.80
2022-08-03T15:04:31.615Z,1.60
2022-08-03T15:06:59.234Z,0.98
2022-08-03T15:09:26.893Z,1.02
2022-08-03T15:11:55.943Z,0.85
2022-08-03T15:14:28.459Z,0.75
2022-08-03T15:17:01.231Z,1.02
2022-08-03T15:20:03.139Z,1.10
2022-08-03T15:22:20.518Z,0.73
2022-08-03T15:24:52.472Z,0.57
2022-08-03T15:27:21.904Z,0.60
2022-08-03T15:30:05.231Z,0.50
2022-08-03T15:32:35.796Z,4.35
2022-08-03T15:35:03.703Z,2.00
2022-08-03T15:37:31.359Z,1.70
2022-08-03T15:40:00.990Z,1.80
2022-08-03T15:42:31.573Z,0.77
2022-08-03T15:44:59.445Z,0.90
2022-08-03T15:47:27.288Z,1.38
2022-08-03T15:49:54.947Z,1.10
2022-08-03T15:52:22.631Z,0.82
2022-08-03T15:54:50.593Z,0.82
2022-08-03T15:57:18.696Z,0.68
2022-08-03T15:59:48.105Z,0.73
2022-08-03T16:02:16.253Z,0.93
2022-08-03T16:04:43.925Z,1.38
2022-08-03T16:07:12.743Z,0.90
2022-08-03T16:09:43.482Z,1.83
2022-08-03T16:12:14.522Z,1.10
2022-08-03T16:14:52.346Z,1.42
2022-08-03T16:17:24.545Z,1.00
2022-08-03T16:19:55.106Z,1.20
2022-08-03T16:22:23.809Z,1.40
2022-08-03T16:24:51.667Z,0.88
2022-08-03T16:27:37.320Z,0.63
2022-08-03T16:30:09.410Z,1.08
2022-08-03T16:32:39.883Z,1.27
2022-08-03T16:35:08.626Z,1.30
2022-08-03T16:37:38.690Z,1.55
2022-08-03T16:40:19.371Z,1.02
2022-08-03T16:42:47.779Z,0.80
2022-08-03T16:45:15.602Z,1.02
2022-08-03T16:47:44.893Z,0.88
2022-08-03T16:50:19.713Z,0.70
2022-08-03T16:52:48.513Z,1.60
2022-08-03T16:55:42.954Z,1.38
2022-08-03T16:58:06.437Z,0.80
2022-08-03T17:00:41.631Z,1.08
2022-08-03T17:03:12.757Z,1.00
2022-08-03T17:05:49.862Z,0.90
2022-08-03T17:08:26.488Z,1.15
2022-08-03T17:10:55.778Z,1.00
2022-08-03T17:13:39.205Z,0.90
2022-08-03T17:16:10.000Z,0.82
2022-08-03T17:18:42.225Z,0.60
2022-08-03T17:21:16.803Z,0.93
2022-08-03T17:23:47.803Z,1.02
2022-08-03T17:26:21.500Z,0.88
2022-08-03T17:28:56.512Z,0.90
2022-08-03T17:31:31.420Z,1.10
2022-08-03T17:34:04.523Z,1.60
2022-08-03T17:37:02.711Z,2.50
2022-08-03T17:39:48.513Z,1.45
2022-08-03T17:42:29.332Z,1.00
2022-08-03T17:45:02.204Z,0.80
2022-08-03T17:47:42.180Z,0.88
2022-08-03T17:50:24.067Z,1.23
2022-08-03T17:52:59.565Z,2.25
2022-08-03T17:58:24.919Z,1.20
2022-08-03T18:01:58.285Z,1.38
2022-08-03T18:04:11.145Z,2.00
2022-08-03T18:06:56.315Z,1.58
2022-08-03T18:10:04.807Z,1.40
2022-08-03T18:12:19.133Z,1.65
2022-08-03T18:14:57.635Z,2.42
2022-08-03T18:17:55.427Z,2.75
2022-08-03T18:20:34.049Z,2.65
2022-08-03T18:23:10.827Z,2.90
2022-08-03T18:25:57.617Z,1.85
2022-08-03T18:28:27.373Z,1.65
2022-08-03T18:30:57.306Z,1.30
2022-08-03T18:34:16.977Z,1.33
2022-08-03T18:36:21.694Z,1.85
2022-08-03T18:38:59.322Z,2.33
2022-08-03T18:41:32.584Z,3.05
2022-08-03T18:44:08.944Z,3.30
2022-08-03T18:46:48.363Z,4.13
2022-08-03T18:49:25.812Z,5.00
2022-08-03T18:52:03.904Z,3.95
2022-08-03T18:54:51.768Z,4.68
2022-08-03T18:57:38.110Z,2.70
2022-08-03T19:00:12.434Z,2.28
2022-08-03T19:02:48.810Z,2.30
2022-08-03T19:05:21.400Z,1.55
2022-08-03T19:07:58.350Z,1.40
2022-08-03T19:10:32.436Z,1.35
2022-08-03T19:13:04.876Z,1.00
2022-08-03T19:15:41.508Z,1.15
2022-08-03T19:18:22.616Z,0.80
2022-08-03T19:20:54.727Z,0.80
2022-08-03T19:23:24.906Z,0.60
2022-08-03T19:25:54.430Z,0.80
2022-08-03T19:28:29.701Z,1.00
2022-08-03T19:30:58.334Z,0.73
2022-08-03T19:33:29.907Z,0.95
2022-08-03T19:35:58.472Z,1.08
2022-08-03T19:38:29.534Z,0.80
2022-08-03T19:41:03.025Z,0.80
2022-08-03T19:43:51.496Z,0.82
2022-08-03T19:46:22.631Z,0.80
2022-08-03T19:49:01.655Z,1.20
2022-08-03T19:52:00.686Z,1.10
2022-08-03T19:54:29.652Z,1.10
2022-08-03T19:57:01.970Z,0.82
2022-08-03T19:59:30.736Z,0.90
2022-08-03T20:01:58.596Z,1.13
2022-08-03T20:04:26.525Z,0.98
2022-08-03T20:06:57.085Z,1.23
2022-08-03T20:09:30.490Z,0.88
2022-08-03T20:11:58.938Z,1.00
2022-08-03T20:14:28.519Z,0.98
2022-08-03T20:16:57.297Z,1.20
2022-08-03T20:19:25.345Z,1.30
2022-08-03T20:22:00.762Z,0.97
2022-08-03T20:24:31.688Z,1.10
2022-08-03T20:27:01.604Z,0.98
2022-08-03T20:30:05.457Z,1.02
2022-08-03T20:32:24.742Z,1.02
2022-08-03T20:34:52.929Z,0.98
2022-08-03T20:37:21.020Z,1.38
2022-08-03T20:39:49.471Z,1.02
2022-08-03T20:42:19.243Z,1.33
2022-08-03T20:45:04.482Z,1.33
2022-08-03T20:47:35.928Z,1.20
2022-08-03T20:52:52.899Z,1.07
2022-08-03T20:55:48.283Z,1.10
2022-08-03T20:58:08.479Z,1.10
2022-08-03T21:00:37.726Z,1.10
2022-08-03T21:03:06.838Z,1.27
2022-08-03T21:05:51.513Z,1.27
2022-08-03T21:08:23.440Z,1.30
2022-08-03T21:10:52.463Z,1.17
2022-08-03T21:13:03.990Z,1.02
2022-08-03T21:13:13.088Z,1.10
2022-08-03T21:13:25.207Z,1.40
2022-08-03T21:16:12.410Z,1.13
2022-08-03T21:18:46.055Z,1.10
2022-08-03T21:21:16.583Z,1.30
2022-08-03T21:23:47.681Z,1.30
2022-08-03T21:26:17.689Z,1.40
2022-08-03T21:28:46.728Z,1.37
2022-08-03T21:31:24.442Z,1.30
2022-08-03T21:33:55.093Z,1.20
2022-08-03T21:36:22.993Z,1.50
2022-08-03T21:38:55.781Z,1.20
2022-08-03T21:41:24.903Z,1.40
2022-08-03T21:43:52.725Z,1.30
2022-08-03T21:46:23.694Z,1.60
2022-08-03T21:48:55.915Z,1.43
2022-08-03T21:51:26.369Z,1.50
2022-08-03T21:54:00.367Z,1.53
2022-08-03T21:56:37.368Z,1.67
2022-08-03T21:59:07.813Z,2.00
2022-08-03T22:01:38.092Z,1.70
2022-08-03T22:04:07.370Z,1.90
2022-08-03T22:06:39.943Z,2.00
2022-08-03T22:09:07.857Z,1.73
2022-08-03T22:11:36.043Z,1.70
2022-08-03T22:14:04.150Z,1.90
2022-08-03T22:16:32.193Z,1.53
2022-08-03T22:19:01.277Z,2.00
2022-08-03T22:21:36.394Z,2.00
2022-08-03T22:24:06.314Z,1.47
2022-08-03T22:26:35.672Z,1.70
2022-08-03T22:29:07.768Z,1.70
2022-08-03T22:31:58.484Z,1.40
2022-08-03T22:34:27.355Z,1.73
2022-08-03T22:37:00.416Z,1.73
2022-08-03T22:39:29.335Z,1.50
2022-08-03T22:41:57.993Z,1.60
2022-08-03T22:44:25.956Z,1.40
2022-08-03T22:46:53.673Z,1.50
2022-08-03T22:49:22.021Z,1.60
2022-08-03T22:51:51.879Z,1.50
2022-08-03T22:54:20.165Z,1.60
2022-08-03T22:56:48.177Z,1.37
2022-08-03T22:59:39.968Z,1.87
2022-08-03T23:02:20.021Z,1.50
2022-08-03T23:04:52.242Z,1.63
2022-08-03T23:07:27.485Z,1.30
2022-08-03T23:09:56.048Z,1.90
2022-08-03T23:12:24.664Z,1.63
2022-08-03T23:14:55.795Z,1.73
2022-08-03T23:17:24.303Z,1.60
2022-08-03T23:19:53.785Z,1.87
2022-08-03T23:22:30.464Z,1.40
2022-08-03T23:25:01.391Z,1.80
2022-08-03T23:27:29.119Z,1.60
2022-08-03T23:29:58.781Z,1.47
2022-08-03T23:32:27.276Z,1.97
2022-08-03T23:35:14.541Z,1.70
2022-08-03T23:38:04.388Z,1.77
2022-08-03T23:40:32.274Z,1.60
2022-08-03T23:43:00.679Z,1.50
2022-08-03T23:45:29.084Z,1.47
2022-08-03T23:47:56.827Z,1.50
2022-08-03T23:50:25.119Z,1.60
2022-08-03T23:53:01.465Z,1.37
2022-08-03T23:55:41.259Z,1.67
2022-08-03T23:58:16.328Z,1.60
